Terminal Aerodrome Forecast
Issued by NWS Flagstaff, AZ

Home | Current Version | Previous Version | Text Only | Print | Product List | Glossary On
Versions: 1 2 3 4 5 6 7 8 9 10 11 12 13 14 15
000
FTUS45 KFGZ 271700 RRA
TAFFLG
TAF
KFLG 271743Z 2718/2818 23008KT P6SM SCT050 OVC080
      TEMPO 2718/2722 4SM -SHSN BKN040
     FM272200 24012G23KT P6SM SCT030 BKN050
      TEMPO 2722/2802 2SM -SHSN BR SCT020 BKN030
     FM280200 24011KT 4SM -SHSN BR SCT020 OVC030=

USA.gov is the U.S. government's official web portal to all federal, state and local government web resources and services.